Time;durP1;ratioP1;P1;durP2;ratioP2;P2;SDS_P1;SDS_P2;PMS_P1;PMS_P2;Temp;Humidity;BMP_temperature;BMP_pressure;BME280_temperature;BME280_humidity;BME280_pressure;Samples;Min_cycle;Max_cycle;Signal;HPM_P1;HPM_P2
2023/05/03 00:00:00;;;;;;;55.30;31.77;;;;;;;;;;10282316;28;20122;-82
2023/05/03 00:05:03;;;;;;;53.25;31.63;;;;;;;;;;10279171;28;20039;-82
2023/05/03 00:10:04;;;;;;;59.72;32.10;;;;;;;;;;10283534;28;20069;-82
2023/05/03 00:15:05;;;;;;;51.33;27.88;;;;;;;;;;10283295;28;20073;-82
2023/05/03 00:20:11;;;;;;;51.05;29.15;;;;;;;;;;10281094;28;20030;-83
2023/05/03 00:25:12;;;;;;;73.72;35.20;;;;;;;;;;10282843;28;20027;-83
2023/05/03 00:30:13;;;;;;;55.88;30.27;;;;;;;;;;10292493;28;20027;-81
2023/05/03 00:35:14;;;;;;;84.40;40.08;;;;;;;;;;10282003;28;20051;-83
2023/05/03 00:40:17;;;;;;;55.83;31.38;;;;;;;;;;10269525;28;20085;-81
2023/05/03 00:45:18;;;;;;;79.63;37.85;;;;;;;;;;10280509;28;20683;-81
2023/05/03 00:50:19;;;;;;;56.00;31.65;;;;;;;;;;10265938;28;20032;-81
2023/05/03 00:55:21;;;;;;;76.00;40.42;;;;;;;;;;10280899;28;20102;-82
2023/05/03 01:00:22;;;;;;;84.75;42.38;;;;;;;;;;10281100;28;20054;-81
2023/05/03 01:05:23;;;;;;;69.75;38.38;;;;;;;;;;10266314;28;20432;-82
2023/05/03 01:10:41;;;;;;;76.88;39.72;;;;;;;;;;10280425;28;20908;-80
2023/05/03 01:15:57;;;;;;;71.10;38.72;;;;;;;;;;10275082;28;20134;-81
2023/05/03 01:20:59;;;;;;;77.80;41.28;;;;;;;;;;10276304;28;20057;-82
2023/05/03 01:26:14;;;;;;;65.53;35.08;;;;;;;;;;10280756;28;20019;-80
2023/05/03 01:31:21;;;;;;;64.40;35.53;;;;;;;;;;10266044;28;20081;-81
2023/05/03 01:36:27;;;;;;;65.10;35.63;;;;;;;;;;10280228;28;20043;-82
2023/05/03 01:41:28;;;;;;;58.38;34.28;;;;;;;;;;10262384;28;20562;-82
2023/05/03 01:46:30;;;;;;;75.55;39.38;;;;;;;;;;10267237;28;20103;-82
2023/05/03 01:51:31;;;;;;;67.88;37.83;;;;;;;;;;10280397;28;20031;-81
2023/05/03 01:56:33;;;;;;;70.32;39.30;;;;;;;;;;10279706;28;20542;-82
2023/05/03 02:01:34;;;;;;;69.22;39.20;;;;;;;;;;10275228;28;20778;-81
2023/05/03 02:06:35;;;;;;;73.18;39.88;;;;;;;;;;10279692;28;20126;-81
2023/05/03 02:11:36;;;;;;;80.50;43.25;;;;;;;;;;10279793;28;20039;-82
2023/05/03 02:16:37;;;;;;;87.93;46.92;;;;;;;;;;10276240;28;20134;-82
2023/05/03 02:21:38;;;;;;;109.10;51.05;;;;;;;;;;10274280;28;20035;-82
2023/05/03 02:26:39;;;;;;;98.78;48.08;;;;;;;;;;10283442;28;20038;-82
2023/05/03 02:31:40;;;;;;;77.05;40.13;;;;;;;;;;10273717;28;20039;-81
2023/05/03 02:36:41;;;;;;;77.90;40.38;;;;;;;;;;10285630;28;20038;-82
2023/05/03 02:41:42;;;;;;;73.50;38.38;;;;;;;;;;10286610;28;20126;-81
2023/05/03 02:46:43;;;;;;;65.95;35.88;;;;;;;;;;10279021;28;20707;-81
2023/05/03 02:51:44;;;;;;;70.20;35.33;;;;;;;;;;10286153;28;20542;-81
2023/05/03 02:56:45;;;;;;;71.38;36.88;;;;;;;;;;10286230;28;20042;-81
2023/05/03 03:01:46;;;;;;;66.97;34.30;;;;;;;;;;10284196;28;20063;-81
2023/05/03 03:06:47;;;;;;;64.15;34.17;;;;;;;;;;10283163;28;20573;-82
2023/05/03 03:11:50;;;;;;;74.40;36.10;;;;;;;;;;10268622;28;20121;-81
2023/05/03 03:16:51;;;;;;;69.38;32.42;;;;;;;;;;10285024;28;20042;-83
2023/05/03 03:21:54;;;;;;;70.55;36.00;;;;;;;;;;10285044;28;20070;-82
2023/05/03 03:26:55;;;;;;;70.22;34.60;;;;;;;;;;10285595;28;20561;-80
2023/05/03 03:31:56;;;;;;;70.15;34.17;;;;;;;;;;10284051;28;20045;-81
2023/05/03 03:36:59;;;;;;;62.38;33.20;;;;;;;;;;10267622;28;20047;-82
2023/05/03 03:42:01;;;;;;;69.10;34.83;;;;;;;;;;10268703;28;20451;-82
2023/05/03 03:47:02;;;;;;;74.20;37.05;;;;;;;;;;10283580;28;20034;-81
2023/05/03 03:52:03;;;;;;;69.07;34.50;;;;;;;;;;10284251;28;20398;-81
2023/05/03 03:57:04;;;;;;;79.30;39.15;;;;;;;;;;10283768;28;20524;-82
2023/05/03 04:02:05;;;;;;;80.68;38.70;;;;;;;;;;10244184;28;20201;-82
2023/05/03 04:07:07;;;;;;;70.75;36.88;;;;;;;;;;10243024;28;20035;-82
2023/05/03 04:12:12;;;;;;;69.47;38.47;;;;;;;;;;10241490;28;20034;-81
2023/05/03 04:17:13;;;;;;;64.03;33.35;;;;;;;;;;10243503;29;20042;-83
2023/05/03 04:22:14;;;;;;;62.00;32.08;;;;;;;;;;10244227;29;20501;-82
2023/05/03 04:27:17;;;;;;;54.85;31.05;;;;;;;;;;10224886;29;20027;-83
2023/05/03 04:32:22;;;;;;;59.97;30.35;;;;;;;;;;10240744;28;20043;-82
2023/05/03 04:37:23;;;;;;;60.93;30.93;;;;;;;;;;10242722;28;20046;-82
2023/05/03 04:42:23;;;;;;;56.22;29.08;;;;;;;;;;10240552;28;20630;-82
2023/05/03 04:47:25;;;;;;;41.83;22.58;;;;;;;;;;10233530;29;20041;-82
2023/05/03 04:52:28;;;;;;;44.72;23.98;;;;;;;;;;10242102;28;20070;-82
2023/05/03 04:57:29;;;;;;;40.90;22.88;;;;;;;;;;10241883;28;20043;-82
2023/05/03 05:02:30;;;;;;;41.70;23.15;;;;;;;;;;10264226;28;20117;-84
2023/05/03 05:07:31;;;;;;;47.83;26.15;;;;;;;;;;10279843;28;20620;-82
2023/05/03 05:12:32;;;;;;;44.80;24.50;;;;;;;;;;10279624;28;20042;-82
2023/05/03 05:17:35;;;;;;;37.20;21.55;;;;;;;;;;10280473;28;20137;-82
2023/05/03 05:22:38;;;;;;;35.92;20.25;;;;;;;;;;10272131;28;20035;-81
2023/05/03 05:27:44;;;;;;;38.58;21.08;;;;;;;;;;10285665;28;20038;-82
2023/05/03 05:32:45;;;;;;;37.72;21.42;;;;;;;;;;10278788;28;20046;-81
2023/05/03 05:37:46;;;;;;;28.15;16.50;;;;;;;;;;10279440;28;20051;-82
2023/05/03 05:42:47;;;;;;;28.05;14.45;;;;;;;;;;10258659;28;20054;-81
2023/05/03 05:47:48;;;;;;;23.95;12.55;;;;;;;;;;10269260;28;20045;-82
2023/05/03 05:52:53;;;;;;;25.55;12.43;;;;;;;;;;10275911;28;20057;-83
2023/05/03 05:57:56;;;;;;;27.38;13.10;;;;;;;;;;10281295;28;20105;-85
2023/05/03 06:02:57;;;;;;;22.55;13.48;;;;;;;;;;10282035;28;20038;-82
2023/05/03 06:07:58;;;;;;;26.20;13.25;;;;;;;;;;10281051;28;20035;-82
2023/05/03 06:12:59;;;;;;;21.10;11.63;;;;;;;;;;10281273;28;20460;-83
2023/05/03 06:18:00;;;;;;;19.25;11.07;;;;;;;;;;10286900;28;20043;-81
2023/05/03 06:23:03;;;;;;;24.50;11.77;;;;;;;;;;10263359;28;20450;-82
2023/05/03 06:28:04;;;;;;;19.13;11.15;;;;;;;;;;10277024;28;20031;-83
2023/05/03 06:33:06;;;;;;;20.23;10.93;;;;;;;;;;10288096;28;20030;-83
2023/05/03 06:38:08;;;;;;;18.30;10.10;;;;;;;;;;10284690;28;20042;-82
2023/05/03 06:43:11;;;;;;;20.85;10.35;;;;;;;;;;10286518;28;20019;-81
2023/05/03 06:48:12;;;;;;;20.00;10.95;;;;;;;;;;10265775;28;20023;-82
2023/05/03 06:53:13;;;;;;;15.85;8.43;;;;;;;;;;10283037;28;20022;-81
2023/05/03 06:58:15;;;;;;;16.25;9.07;;;;;;;;;;10279682;28;20149;-81
2023/05/03 07:03:16;;;;;;;14.20;7.60;;;;;;;;;;10284082;28;20035;-80
2023/05/03 07:08:17;;;;;;;14.30;6.50;;;;;;;;;;10275648;28;20471;-80
2023/05/03 07:13:18;;;;;;;14.75;7.70;;;;;;;;;;10284344;28;20034;-81
2023/05/03 07:18:19;;;;;;;9.93;5.18;;;;;;;;;;10283801;28;20589;-80
2023/05/03 07:23:20;;;;;;;12.23;5.22;;;;;;;;;;10288184;28;20105;-80
2023/05/03 07:28:23;;;;;;;11.55;5.88;;;;;;;;;;10284338;28;20110;-80
2023/05/03 07:33:24;;;;;;;14.00;6.57;;;;;;;;;;10282615;28;20044;-79
2023/05/03 07:38:25;;;;;;;16.45;8.10;;;;;;;;;;10280607;28;20035;-81
2023/05/03 07:43:26;;;;;;;14.85;7.18;;;;;;;;;;10296280;28;20383;-82
2023/05/03 07:48:27;;;;;;;14.23;7.13;;;;;;;;;;10284799;28;20037;-80
2023/05/03 07:53:30;;;;;;;14.45;6.55;;;;;;;;;;10283296;28;20114;-81
2023/05/03 07:58:31;;;;;;;15.00;7.10;;;;;;;;;;10283244;28;20405;-83
2023/05/03 08:03:35;;;;;;;10.52;5.80;;;;;;;;;;10283221;28;20026;-81
2023/05/03 08:08:37;;;;;;;9.93;5.97;;;;;;;;;;10282771;28;20037;-80
2023/05/03 08:13:38;;;;;;;13.40;6.40;;;;;;;;;;10282965;28;20065;-81
2023/05/03 08:18:39;;;;;;;11.27;6.55;;;;;;;;;;10282151;28;20121;-81
2023/05/03 08:23:40;;;;;;;17.00;8.15;;;;;;;;;;10282929;28;20035;-80
2023/05/03 08:28:41;;;;;;;15.73;8.15;;;;;;;;;;10282205;28;20051;-80
2023/05/03 08:33:42;;;;;;;13.38;8.07;;;;;;;;;;10272114;28;20035;-81
2023/05/03 08:38:55;;;;;;;16.60;8.25;;;;;;;;;;10280575;28;20050;-80
2023/05/03 08:44:08;;;;;;;15.13;8.35;;;;;;;;;;10279835;28;20785;-80
2023/05/03 08:49:14;;;;;;;15.23;8.60;;;;;;;;;;10278901;28;20022;-81
2023/05/03 08:54:17;;;;;;;17.05;8.52;;;;;;;;;;10279541;28;20478;-81
2023/05/03 08:59:18;;;;;;;17.77;7.53;;;;;;;;;;10263612;28;20066;-81
2023/05/03 09:04:23;;;;;;;14.65;8.68;;;;;;;;;;10242446;28;20019;-81
2023/05/03 09:09:33;;;;;;;16.42;8.18;;;;;;;;;;10241336;28;20095;-81
2023/05/03 09:14:43;;;;;;;17.60;8.80;;;;;;;;;;10240766;29;20079;-81
2023/05/03 09:19:51;;;;;;;18.73;7.65;;;;;;;;;;10239510;28;20552;-81
2023/05/03 09:24:58;;;;;;;16.45;8.95;;;;;;;;;;10238453;28;20496;-80
2023/05/03 09:30:16;;;;;;;14.95;8.10;;;;;;;;;;10214135;29;20082;-81
2023/05/03 09:35:21;;;;;;;18.65;9.93;;;;;;;;;;10222380;29;20031;-80
2023/05/03 09:40:22;;;;;;;15.63;9.57;;;;;;;;;;10244902;28;20043;-81
2023/05/03 09:45:23;;;;;;;14.95;9.15;;;;;;;;;;10239523;28;20035;-79
2023/05/03 09:50:25;;;;;;;16.77;8.60;;;;;;;;;;10230779;28;20130;-80
2023/05/03 09:55:29;;;;;;;18.33;10.10;;;;;;;;;;10244842;28;20110;-80
2023/05/03 10:00:33;;;;;;;16.80;9.13;;;;;;;;;;10263520;28;20054;-81
2023/05/03 10:05:37;;;;;;;24.63;10.45;;;;;;;;;;10272140;28;20043;-80
2023/05/03 10:10:40;;;;;;;17.73;10.73;;;;;;;;;;10272228;28;20423;-81
2023/05/03 10:15:44;;;;;;;19.80;12.15;;;;;;;;;;10278300;28;20440;-81
2023/05/03 10:20:49;;;;;;;25.08;14.38;;;;;;;;;;10278842;28;20050;-81
2023/05/03 10:26:05;;;;;;;20.97;14.23;;;;;;;;;;10276088;28;20073;-80
2023/05/03 10:31:26;;;;;;;28.75;16.70;;;;;;;;;;10276795;28;20105;-78
2023/05/03 10:36:27;;;;;;;16.02;11.32;;;;;;;;;;10266297;28;20039;-80
2023/05/03 10:41:33;;;;;;;16.90;11.13;;;;;;;;;;10279195;28;20038;-79
2023/05/03 10:46:37;;;;;;;20.92;11.68;;;;;;;;;;10284933;28;20027;-81
2023/05/03 10:51:42;;;;;;;15.80;10.27;;;;;;;;;;10295030;28;20447;-80
2023/05/03 10:56:50;;;;;;;16.98;10.10;;;;;;;;;;10285144;28;20062;-81
2023/05/03 11:01:52;;;;;;;19.88;11.88;;;;;;;;;;10273289;28;20061;-80
2023/05/03 11:06:55;;;;;;;16.45;11.05;;;;;;;;;;10281630;28;20039;-80
2023/05/03 11:11:56;;;;;;;20.65;11.85;;;;;;;;;;10277470;28;20030;-80
2023/05/03 11:17:00;;;;;;;19.25;12.93;;;;;;;;;;10258779;28;20502;-82
2023/05/03 11:22:06;;;;;;;19.25;13.15;;;;;;;;;;10275360;28;20525;-79
2023/05/03 11:27:07;;;;;;;;;;;;;;;;;;10277906;28;20393;-80
2023/05/03 11:32:09;;;;;;;21.38;14.88;;;;;;;;;;10281765;28;19977;-79
2023/05/03 11:37:10;;;;;;;24.50;15.98;;;;;;;;;;10280522;28;20041;-81
2023/05/03 11:42:11;;;;;;;18.67;13.20;;;;;;;;;;10282218;28;20109;-79
2023/05/03 11:47:14;;;;;;;23.20;14.68;;;;;;;;;;10274557;28;20414;-79
2023/05/03 11:52:19;;;;;;;21.83;14.82;;;;;;;;;;10270724;28;20549;-80
2023/05/03 11:57:23;;;;;;;24.90;15.27;;;;;;;;;;10282843;28;20034;-80
2023/05/03 12:02:24;;;;;;;23.27;15.13;;;;;;;;;;10280363;28;20047;-80
2023/05/03 12:07:25;;;;;;;20.20;13.38;;;;;;;;;;10278944;28;20055;-79
2023/05/03 12:12:28;;;;;;;19.08;12.25;;;;;;;;;;10275343;28;20222;-80
2023/05/03 12:17:45;;;;;;;18.05;11.95;;;;;;;;;;10281116;28;20043;-80
2023/05/03 12:22:50;;;;;;;20.48;9.85;;;;;;;;;;10283394;28;20031;-80
2023/05/03 12:27:51;;;;;;;15.27;10.40;;;;;;;;;;10272824;28;20049;-80
2023/05/03 12:32:53;;;;;;;15.45;9.05;;;;;;;;;;10278416;28;20081;-82
2023/05/03 12:37:54;;;;;;;17.02;9.07;;;;;;;;;;10288289;28;20534;-80
2023/05/03 12:42:55;;;;;;;18.27;10.77;;;;;;;;;;10287505;28;20037;-80
2023/05/03 12:47:56;;;;;;;17.02;10.52;;;;;;;;;;10284029;28;20726;-79
2023/05/03 12:52:58;;;;;;;17.60;11.07;;;;;;;;;;10282697;28;20102;-80
2023/05/03 12:58:00;;;;;;;15.85;9.50;;;;;;;;;;10277168;28;20641;-82
2023/05/03 13:03:04;;;;;;;14.60;9.20;;;;;;;;;;10274964;28;20033;-79
2023/05/03 13:08:05;;;;;;;15.27;8.80;;;;;;;;;;10278857;28;20066;-81
2023/05/03 13:13:06;;;;;;;13.07;9.00;;;;;;;;;;10278788;28;20023;-81
2023/05/03 13:18:07;;;;;;;11.52;7.30;;;;;;;;;;10287208;28;20573;-79
2023/05/03 13:23:08;;;;;;;14.68;8.52;;;;;;;;;;10279767;28;20060;-81
2023/05/03 13:28:11;;;;;;;12.25;7.65;;;;;;;;;;10281154;28;20035;-79
2023/05/03 13:33:16;;;;;;;9.15;6.60;;;;;;;;;;10288452;28;20493;-79
2023/05/03 13:38:17;;;;;;;15.23;7.50;;;;;;;;;;10279637;28;20054;-80
2023/05/03 13:43:21;;;;;;;10.63;7.25;;;;;;;;;;10280324;28;20035;-79
2023/05/03 13:48:25;;;;;;;13.95;8.02;;;;;;;;;;10262743;28;20061;-82
2023/05/03 13:53:26;;;;;;;13.10;7.87;;;;;;;;;;10279742;28;20022;-80
2023/05/03 13:58:27;;;;;;;12.07;7.95;;;;;;;;;;10278498;28;20318;-81
2023/05/03 14:03:28;;;;;;;13.95;8.02;;;;;;;;;;10277365;28;20838;-80
2023/05/03 14:08:29;;;;;;;13.68;7.70;;;;;;;;;;10278915;28;20205;-79
2023/05/03 14:13:30;;;;;;;13.75;8.10;;;;;;;;;;10277711;28;20038;-80
2023/05/03 14:18:31;;;;;;;12.70;8.35;;;;;;;;;;10283709;28;20372;-79
2023/05/03 14:23:39;;;;;;;9.13;5.65;;;;;;;;;;10286840;28;20162;-80
2023/05/03 14:28:40;;;;;;;8.38;4.90;;;;;;;;;;10286814;28;20454;-80
2023/05/03 14:33:41;;;;;;;9.13;4.90;;;;;;;;;;10285563;28;20069;-80
2023/05/03 14:38:43;;;;;;;10.35;4.63;;;;;;;;;;10284238;28;20073;-82
2023/05/03 14:43:44;;;;;;;7.22;4.60;;;;;;;;;;10289861;28;20034;-79
2023/05/03 14:48:45;;;;;;;8.75;5.05;;;;;;;;;;10284976;28;20037;-80
2023/05/03 14:53:46;;;;;;;8.48;4.32;;;;;;;;;;10280661;28;20038;-80
2023/05/03 14:58:49;;;;;;;7.10;4.55;;;;;;;;;;10284060;28;20487;-80
2023/05/03 15:03:50;;;;;;;8.15;4.40;;;;;;;;;;10297239;28;20026;-79
2023/05/03 15:08:51;;;;;;;6.00;3.85;;;;;;;;;;10285548;28;20058;-80
2023/05/03 15:13:52;;;;;;;7.05;3.92;;;;;;;;;;10283731;28;20031;-80
2023/05/03 15:18:53;;;;;;;6.90;3.97;;;;;;;;;;10285598;28;20053;-79
2023/05/03 15:23:54;;;;;;;7.97;4.25;;;;;;;;;;10284310;28;20035;-80
2023/05/03 15:28:55;;;;;;;9.27;4.03;;;;;;;;;;10286876;28;20089;-80
2023/05/03 15:33:56;;;;;;;8.15;4.13;;;;;;;;;;10290247;28;20040;-79
2023/05/03 15:38:57;;;;;;;7.35;4.90;;;;;;;;;;10292321;28;20137;-79
2023/05/03 15:44:03;;;;;;;11.60;6.28;;;;;;;;;;10281005;28;20664;-80
2023/05/03 15:49:04;;;;;;;;;;;;;;;;;;10285040;28;20041;-80
2023/05/03 15:54:06;;;;;;;7.13;3.25;;;;;;;;;;10282256;28;20286;-79
2023/05/03 15:59:07;;;;;;;6.05;3.10;;;;;;;;;;10282944;28;20069;-80
2023/05/03 16:04:10;;;;;;;5.47;3.47;;;;;;;;;;10286498;28;20028;-80
2023/05/03 16:09:14;;;;;;;5.18;3.97;;;;;;;;;;10287923;28;20034;-78
2023/05/03 16:14:15;;;;;;;5.07;3.40;;;;;;;;;;10269488;28;20716;-79
2023/05/03 16:19:16;;;;;;;8.25;3.83;;;;;;;;;;10280202;28;20129;-81
2023/05/03 16:24:20;;;;;;;7.78;4.80;;;;;;;;;;10289831;28;20648;-79
2023/05/03 16:29:21;;;;;;;7.85;6.30;;;;;;;;;;10282940;28;20475;-80
2023/05/03 16:34:22;;;;;;;12.38;7.45;;;;;;;;;;10281007;28;20035;-79
2023/05/03 16:39:24;;;;;;;7.97;5.60;;;;;;;;;;10291659;28;20050;-81
2023/05/03 16:44:25;;;;;;;6.57;3.13;;;;;;;;;;10282039;28;20125;-79
2023/05/03 16:49:26;;;;;;;6.15;3.83;;;;;;;;;;10285522;28;20125;-79
2023/05/03 16:54:28;;;;;;;8.95;4.22;;;;;;;;;;10283260;28;20116;-82
2023/05/03 16:59:30;;;;;;;9.10;4.82;;;;;;;;;;10277323;28;20139;-80
2023/05/03 17:04:33;;;;;;;9.27;5.30;;;;;;;;;;10280498;28;20023;-78
2023/05/03 17:09:35;;;;;;;5.22;3.95;;;;;;;;;;10280437;28;20031;-78
2023/05/03 17:14:36;;;;;;;7.05;3.80;;;;;;;;;;10280172;28;20034;-79
2023/05/03 17:19:37;;;;;;;9.85;4.38;;;;;;;;;;10279931;28;20046;-80
2023/05/03 17:24:38;;;;;;;5.97;4.20;;;;;;;;;;10278211;28;20382;-79
2023/05/03 17:29:40;;;;;;;8.23;4.65;;;;;;;;;;10272377;28;20046;-79
2023/05/03 17:34:41;;;;;;;6.90;4.75;;;;;;;;;;10279864;28;20553;-78
2023/05/03 17:39:41;;;;;;;8.23;5.00;;;;;;;;;;10280489;28;20174;-78
2023/05/03 17:44:42;;;;;;;8.18;4.85;;;;;;;;;;10262746;28;20065;-78
2023/05/03 17:49:43;;;;;;;8.45;4.35;;;;;;;;;;10283361;28;20043;-80
2023/05/03 17:54:45;;;;;;;8.73;5.30;;;;;;;;;;10279485;28;20113;-78
2023/05/03 17:59:47;;;;;;;8.63;5.40;;;;;;;;;;10284344;28;20121;-80
2023/05/03 18:04:48;;;;;;;13.70;5.65;;;;;;;;;;10287323;28;20066;-80
2023/05/03 18:09:51;;;;;;;13.43;6.55;;;;;;;;;;10287000;28;20808;-78
2023/05/03 18:14:58;;;;;;;13.40;5.95;;;;;;;;;;10287443;28;20089;-81
2023/05/03 18:19:59;;;;;;;12.93;6.33;;;;;;;;;;10287268;28;20684;-79
2023/05/03 18:25:01;;;;;;;10.90;5.83;;;;;;;;;;10285664;28;20039;-79
2023/05/03 18:30:02;;;;;;;9.60;5.67;;;;;;;;;;10275457;28;20027;-79
2023/05/03 18:35:03;;;;;;;10.77;5.60;;;;;;;;;;10286727;28;20078;-78
2023/05/03 18:40:04;;;;;;;11.47;5.83;;;;;;;;;;10285766;28;20054;-80
2023/05/03 18:45:05;;;;;;;11.93;6.93;;;;;;;;;;10294716;28;20037;-78
2023/05/03 18:50:07;;;;;;;13.00;6.93;;;;;;;;;;10287034;28;20619;-78
2023/05/03 18:55:08;;;;;;;11.47;6.03;;;;;;;;;;10286553;28;20039;-80
2023/05/03 19:00:09;;;;;;;11.03;5.93;;;;;;;;;;10286198;28;20142;-81
2023/05/03 19:05:13;;;;;;;13.30;6.53;;;;;;;;;;10284005;28;20050;-79
2023/05/03 19:10:18;;;;;;;13.57;7.03;;;;;;;;;;10284866;28;20049;-78
2023/05/03 19:15:19;;;;;;;12.30;6.63;;;;;;;;;;10267293;28;20035;-80
2023/05/03 19:20:27;;;;;;;13.97;7.27;;;;;;;;;;10286044;28;20513;-81
2023/05/03 19:25:32;;;;;;;15.70;7.17;;;;;;;;;;10285267;28;20471;-79
2023/05/03 19:30:35;;;;;;;15.90;7.93;;;;;;;;;;10278022;28;20031;-79
2023/05/03 19:35:40;;;;;;;20.23;9.30;;;;;;;;;;10285158;28;20046;-79
2023/05/03 19:40:41;;;;;;;19.47;8.20;;;;;;;;;;10284224;28;20094;-79
2023/05/03 19:45:42;;;;;;;18.13;9.07;;;;;;;;;;10283366;28;20030;-79
2023/05/03 19:50:43;;;;;;;17.97;8.70;;;;;;;;;;10284395;28;20042;-80
2023/05/03 19:55:57;;;;;;;21.50;9.73;;;;;;;;;;10283636;28;20027;-79
2023/05/03 20:00:58;;;;;;;26.37;10.33;;;;;;;;;;10282411;28;20394;-78
2023/05/03 20:05:59;;;;;;;22.37;10.10;;;;;;;;;;10283581;28;20109;-78
2023/05/03 20:11:02;;;;;;;23.53;10.77;;;;;;;;;;10283350;28;20039;-78
2023/05/03 20:16:04;;;;;;;21.60;9.97;;;;;;;;;;10282423;28;20549;-80
2023/05/03 20:21:07;;;;;;;21.80;10.27;;;;;;;;;;10283136;28;20550;-79
2023/05/03 20:26:08;;;;;;;19.20;9.67;;;;;;;;;;10281962;28;20055;-80
2023/05/03 20:31:09;;;;;;;17.47;8.97;;;;;;;;;;10279010;28;20027;-80
2023/05/03 20:36:12;;;;;;;18.73;10.00;;;;;;;;;;10282800;28;20066;-79
2023/05/03 20:41:17;;;;;;;17.53;9.73;;;;;;;;;;10281655;28;20379;-79
2023/05/03 20:46:19;;;;;;;18.30;9.23;;;;;;;;;;10281298;28;20092;-79
2023/05/03 20:51:23;;;;;;;20.90;9.90;;;;;;;;;;10282187;28;20027;-78
2023/05/03 20:56:24;;;;;;;23.63;10.67;;;;;;;;;;10281547;28;20030;-79
2023/05/03 21:01:25;;;;;;;21.13;11.40;;;;;;;;;;10263534;28;20055;-79
2023/05/03 21:06:26;;;;;;;20.07;10.50;;;;;;;;;;10278995;28;20038;-81
2023/05/03 21:11:27;;;;;;;20.27;9.63;;;;;;;;;;10280815;28;20118;-79
2023/05/03 21:16:28;;;;;;;18.80;11.17;;;;;;;;;;10280010;28;20035;-79
2023/05/03 21:21:31;;;;;;;21.63;11.77;;;;;;;;;;10281459;28;20046;-80
2023/05/03 21:26:35;;;;;;;20.23;11.57;;;;;;;;;;10280673;28;20053;-79
2023/05/03 21:31:36;;;;;;;25.60;12.00;;;;;;;;;;10276030;28;20035;-78
2023/05/03 21:36:37;;;;;;;20.30;10.70;;;;;;;;;;10281018;28;20027;-81
2023/05/03 21:41:38;;;;;;;22.50;11.07;;;;;;;;;;10280255;28;20398;-79
2023/05/03 21:46:41;;;;;;;23.80;12.10;;;;;;;;;;10279568;28;20059;-79
2023/05/03 21:51:43;;;;;;;22.90;11.93;;;;;;;;;;10281385;28;20090;-79
2023/05/03 21:56:44;;;;;;;23.33;14.23;;;;;;;;;;10280097;28;20035;-80
2023/05/03 22:01:45;;;;;;;29.90;14.43;;;;;;;;;;10279675;28;20386;-79
2023/05/03 22:06:49;;;;;;;25.60;13.90;;;;;;;;;;10281211;28;20556;-80
2023/05/03 22:11:52;;;;;;;24.13;13.47;;;;;;;;;;10279725;28;20050;-78
2023/05/03 22:16:53;;;;;;;23.70;14.33;;;;;;;;;;10278838;28;20034;-79
2023/05/03 22:21:56;;;;;;;25.73;14.07;;;;;;;;;;10279990;28;20038;-80
2023/05/03 22:26:58;;;;;;;25.77;13.17;;;;;;;;;;10279367;28;20078;-81
2023/05/03 22:32:00;;;;;;;23.23;14.10;;;;;;;;;;10278750;28;20038;-79
2023/05/03 22:37:03;;;;;;;30.30;14.87;;;;;;;;;;10280714;28;20043;-79
2023/05/03 22:42:05;;;;;;;23.00;12.47;;;;;;;;;;10296642;28;20056;-79
2023/05/03 22:47:07;;;;;;;29.63;14.07;;;;;;;;;;10286191;28;20092;-80
2023/05/03 22:52:08;;;;;;;24.47;13.13;;;;;;;;;;10283019;28;20046;-79
2023/05/03 22:57:09;;;;;;;26.63;13.37;;;;;;;;;;10286100;28;20038;-80
2023/05/03 23:02:10;;;;;;;22.10;12.50;;;;;;;;;;10285812;28;20126;-79
2023/05/03 23:07:10;;;;;;;24.90;13.03;;;;;;;;;;10286639;28;20426;-81
2023/05/03 23:12:12;;;;;;;22.70;12.40;;;;;;;;;;10294396;28;20030;-80
2023/05/03 23:17:13;;;;;;;20.60;12.50;;;;;;;;;;10278030;28;20114;-79
2023/05/03 23:22:15;;;;;;;24.77;12.67;;;;;;;;;;10285653;28;20121;-79
2023/05/03 23:27:16;;;;;;;25.63;13.33;;;;;;;;;;10285605;28;20125;-79
2023/05/03 23:32:17;;;;;;;23.10;12.60;;;;;;;;;;10286776;28;20034;-79
2023/05/03 23:37:18;;;;;;;23.73;12.77;;;;;;;;;;10284884;28;20043;-80
2023/05/03 23:42:20;;;;;;;25.67;13.73;;;;;;;;;;10284182;28;20127;-79
2023/05/03 23:47:21;;;;;;;21.53;12.73;;;;;;;;;;10274690;28;20041;-79
2023/05/03 23:52:22;;;;;;;23.63;13.10;;;;;;;;;;10285039;28;20034;-80
2023/05/03 23:57:24;;;;;;;22.53;11.20;;;;;;;;;;10283733;28;20035;-79
